Time;durP1;ratioP1;P1;durP2;ratioP2;P2;SDS_P1;SDS_P2;PMS_P1;PMS_P2;Temp;Humidity;BMP_temperature;BMP_pressure;BME280_temperature;BME280_humidity;BME280_pressure;Samples;Min_cycle;Max_cycle;Signal;HPM_P1;HPM_P2
2023/01/31 00:01:17;;;;;;;441.70;224.20;;;;;;;;;;5040232;28;20230;-50
2023/01/31 00:03:43;;;;;;;513.13;252.60;;;;;;;;;;5041011;28;20238;-51
2023/01/31 00:06:10;;;;;;;457.10;217.33;;;;;;;;;;5020904;28;20253;-49
2023/01/31 00:08:36;;;;;;;548.23;275.23;;;;;;;;;;5037327;28;20202;-50
2023/01/31 00:11:02;;;;;;;473.27;233.37;;;;;;;;;;5041285;28;20199;-50
2023/01/31 00:13:29;;;;;;;536.60;265.33;;;;;;;;;;5024430;28;20264;-52
2023/01/31 00:15:56;;;;;;;525.93;260.23;;;;;;;;;;5043812;28;20284;-50
2023/01/31 00:18:23;;;;;;;527.60;261.47;;;;;;;;;;5040564;28;20235;-50
2023/01/31 00:20:49;;;;;;;444.17;220.53;;;;;;;;;;5044264;28;20238;-49
2023/01/31 00:23:16;;;;;;;442.93;226.57;;;;;;;;;;5044214;28;20598;-50
2023/01/31 00:25:43;;;;;;;513.90;259.93;;;;;;;;;;5042444;28;20560;-50
2023/01/31 00:28:09;;;;;;;521.27;256.87;;;;;;;;;;5044112;28;20270;-49
2023/01/31 00:30:36;;;;;;;529.90;256.97;;;;;;;;;;5023030;28;20487;-52
2023/01/31 00:33:02;;;;;;;446.37;217.07;;;;;;;;;;5042910;28;20836;-50
2023/01/31 00:35:29;;;;;;;430.60;225.97;;;;;;;;;;5044503;28;20209;-50
2023/01/31 00:37:56;;;;;;;445.30;221.50;;;;;;;;;;5044445;28;20191;-50
2023/01/31 00:40:22;;;;;;;538.37;257.50;;;;;;;;;;5043915;28;20288;-51
2023/01/31 00:42:51;;;;;;;487.10;254.57;;;;;;;;;;5043097;28;20553;-50
2023/01/31 00:45:18;;;;;;;501.63;254.97;;;;;;;;;;5045544;28;20870;-49
2023/01/31 00:47:44;;;;;;;447.13;221.87;;;;;;;;;;5043230;28;20251;-49
2023/01/31 00:50:14;;;;;;;462.50;237.87;;;;;;;;;;5044156;28;20176;-50
2023/01/31 00:52:42;;;;;;;483.30;247.03;;;;;;;;;;5041963;28;20224;-50
2023/01/31 00:55:11;;;;;;;502.70;254.80;;;;;;;;;;5042691;28;20324;-50
2023/01/31 00:57:38;;;;;;;440.93;209.20;;;;;;;;;;5043764;28;20230;-49
2023/01/31 01:00:05;;;;;;;435.87;221.70;;;;;;;;;;5043847;28;20223;-49
2023/01/31 01:02:31;;;;;;;502.20;257.87;;;;;;;;;;5038577;28;20232;-50
2023/01/31 01:04:58;;;;;;;452.73;218.13;;;;;;;;;;5042531;22;20246;-48
2023/01/31 01:07:24;;;;;;;511.33;254.47;;;;;;;;;;4942156;28;20623;-48
2023/01/31 01:09:53;;;;;;;463.37;223.30;;;;;;;;;;4962281;28;20631;-46
2023/01/31 01:12:19;;;;;;;462.50;223.70;;;;;;;;;;4939178;28;20222;-47
2023/01/31 01:14:45;;;;;;;463.63;224.37;;;;;;;;;;4946803;28;20521;-47
2023/01/31 01:17:11;;;;;;;487.33;243.43;;;;;;;;;;4977143;28;20190;-47
2023/01/31 01:19:37;;;;;;;480.13;242.70;;;;;;;;;;4966602;28;20598;-48
2023/01/31 01:22:03;;;;;;;449.83;213.07;;;;;;;;;;4925199;28;20287;-48
2023/01/31 01:24:29;;;;;;;492.37;243.27;;;;;;;;;;4936945;28;20664;-48
2023/01/31 01:26:56;;;;;;;434.70;214.90;;;;;;;;;;4952021;28;20690;-48
2023/01/31 01:29:22;;;;;;;444.33;213.27;;;;;;;;;;4955607;28;20257;-48
2023/01/31 01:31:48;;;;;;;449.67;211.53;;;;;;;;;;4926089;28;20218;-46
2023/01/31 01:34:15;;;;;;;441.70;208.13;;;;;;;;;;4941293;28;20814;-47
2023/01/31 01:36:42;;;;;;;507.17;246.73;;;;;;;;;;4922733;28;20223;-46
2023/01/31 01:39:09;;;;;;;458.97;220.13;;;;;;;;;;4933647;28;20585;-47
2023/01/31 01:41:35;;;;;;;497.10;238.70;;;;;;;;;;4945737;28;20235;-47
2023/01/31 01:44:03;;;;;;;449.10;210.77;;;;;;;;;;4938152;28;20310;-46
2023/01/31 01:46:29;;;;;;;502.30;243.90;;;;;;;;;;4937807;28;20719;-46
2023/01/31 01:49:19;;;;;;;501.37;246.50;;;;;;;;;;4953083;28;20295;-46
2023/01/31 01:51:47;;;;;;;474.53;223.83;;;;;;;;;;4959285;28;20761;-48
2023/01/31 01:54:14;;;;;;;450.37;212.10;;;;;;;;;;4967515;28;20757;-48
2023/01/31 01:56:43;;;;;;;482.40;236.03;;;;;;;;;;4969936;28;20659;-49
2023/01/31 01:59:12;;;;;;;436.90;207.57;;;;;;;;;;4954413;28;20579;-46
2023/01/31 02:01:38;;;;;;;500.47;241.37;;;;;;;;;;4918961;28;20227;-46
2023/01/31 02:04:07;;;;;;;429.23;207.40;;;;;;;;;;4943830;28;20941;-48
2023/01/31 02:06:33;;;;;;;423.63;203.87;;;;;;;;;;4962433;28;20256;-49
2023/01/31 02:08:59;;;;;;;464.77;217.30;;;;;;;;;;4990294;28;20233;-46
2023/01/31 02:11:27;;;;;;;442.07;209.93;;;;;;;;;;4964881;28;20668;-46
2023/01/31 02:13:57;;;;;;;515.90;247.53;;;;;;;;;;4947771;28;20606;-46
2023/01/31 02:16:24;;;;;;;448.57;218.57;;;;;;;;;;4931388;28;20278;-47
2023/01/31 02:18:50;;;;;;;497.43;251.67;;;;;;;;;;4927361;28;20231;-46
2023/01/31 02:21:25;;;;;;;475.83;222.77;;;;;;;;;;4950640;28;20297;-47
2023/01/31 02:24:06;;;;;;;477.57;241.83;;;;;;;;;;4950182;28;20257;-47
2023/01/31 02:26:46;;;;;;;464.73;235.37;;;;;;;;;;4946190;28;20214;-47
2023/01/31 02:29:14;;;;;;;455.57;224.07;;;;;;;;;;4980795;28;20184;-47
2023/01/31 02:31:59;;;;;;;503.57;240.90;;;;;;;;;;4947736;28;20309;-46
2023/01/31 02:34:25;;;;;;;480.00;230.67;;;;;;;;;;4946893;28;20297;-47
2023/01/31 02:37:04;;;;;;;484.60;231.63;;;;;;;;;;4977052;28;20263;-48
2023/01/31 02:39:38;;;;;;;458.00;222.03;;;;;;;;;;4948104;28;20226;-48
2023/01/31 02:42:10;;;;;;;513.80;251.83;;;;;;;;;;4923654;28;20214;-48
2023/01/31 02:44:59;;;;;;;516.43;257.27;;;;;;;;;;4937541;28;20198;-48
2023/01/31 02:47:43;;;;;;;483.00;232.30;;;;;;;;;;4941740;28;20194;-48
2023/01/31 02:50:26;;;;;;;457.80;218.20;;;;;;;;;;4940127;28;20241;-48
2023/01/31 02:53:17;;;;;;;506.80;244.93;;;;;;;;;;4926790;28;20731;-48
2023/01/31 02:58:39;;;;;;;489.57;234.17;;;;;;;;;;4942376;28;20261;-47
2023/01/31 03:01:06;;;;;;;487.13;237.40;;;;;;;;;;4939849;28;20220;-47
2023/01/31 03:03:34;;;;;;;445.10;211.43;;;;;;;;;;4946264;28;20223;-47
2023/01/31 03:06:09;;;;;;;496.23;235.50;;;;;;;;;;4946703;28;20700;-47
2023/01/31 03:08:36;;;;;;;422.37;210.60;;;;;;;;;;4915740;28;20198;-47
2023/01/31 03:11:05;;;;;;;462.93;227.93;;;;;;;;;;4939750;28;20193;-47
2023/01/31 03:13:34;;;;;;;435.37;214.20;;;;;;;;;;4943832;28;20652;-48
2023/01/31 03:18:56;;;;;;;415.03;199.60;;;;;;;;;;4950232;28;20226;-46
2023/01/31 03:21:46;;;;;;;450.07;219.17;;;;;;;;;;4950506;28;20327;-47
2023/01/31 03:24:12;;;;;;;438.00;214.67;;;;;;;;;;4969531;28;20673;-47
2023/01/31 03:26:38;;;;;;;433.07;208.97;;;;;;;;;;4945868;28;20850;-47
2023/01/31 03:29:05;;;;;;;413.07;202.63;;;;;;;;;;4942321;28;20183;-47
2023/01/31 03:31:40;;;;;;;486.53;236.40;;;;;;;;;;4965985;28;20283;-47
2023/01/31 03:34:10;;;;;;;486.80;238.70;;;;;;;;;;4942128;28;20592;-47
2023/01/31 03:36:36;;;;;;;516.00;246.30;;;;;;;;;;4941538;28;20535;-47
2023/01/31 03:39:08;;;;;;;446.33;214.50;;;;;;;;;;4939001;28;20219;-47
2023/01/31 03:41:56;;;;;;;447.40;217.60;;;;;;;;;;4949018;28;20322;-47
2023/01/31 03:44:49;;;;;;;432.80;208.00;;;;;;;;;;4936791;28;20176;-46
2023/01/31 03:47:22;;;;;;;454.47;226.73;;;;;;;;;;4929086;28;20276;-46
2023/01/31 03:49:49;;;;;;;495.43;247.10;;;;;;;;;;4961149;28;20702;-47
2023/01/31 03:52:18;;;;;;;439.33;211.67;;;;;;;;;;4952129;28;20466;-46
2023/01/31 03:54:48;;;;;;;487.93;233.40;;;;;;;;;;4945250;28;20301;-48
2023/01/31 03:57:17;;;;;;;446.23;215.67;;;;;;;;;;4997138;28;20317;-47
2023/01/31 03:59:46;;;;;;;453.13;214.27;;;;;;;;;;4957041;28;20285;-48
2023/01/31 04:02:13;;;;;;;426.87;210.33;;;;;;;;;;4951087;28;20193;-48
2023/01/31 04:04:42;;;;;;;446.20;216.80;;;;;;;;;;4938198;28;20728;-48
2023/01/31 04:07:09;;;;;;;502.03;243.17;;;;;;;;;;4953977;28;20328;-48
2023/01/31 04:09:36;;;;;;;433.00;218.03;;;;;;;;;;4942040;28;20216;-46
2023/01/31 04:12:02;;;;;;;506.50;241.63;;;;;;;;;;4934524;28;20328;-47
2023/01/31 04:14:29;;;;;;;433.17;210.20;;;;;;;;;;4954869;28;20259;-47
2023/01/31 04:16:55;;;;;;;446.00;214.07;;;;;;;;;;4927499;28;20362;-49
2023/01/31 04:19:22;;;;;;;416.80;205.63;;;;;;;;;;4946386;28;20376;-46
2023/01/31 04:21:48;;;;;;;422.47;207.33;;;;;;;;;;4941467;28;20245;-46
2023/01/31 04:24:14;;;;;;;477.33;233.80;;;;;;;;;;4993956;28;20213;-47
2023/01/31 04:26:40;;;;;;;440.60;219.33;;;;;;;;;;4955084;28;20199;-47
2023/01/31 04:29:07;;;;;;;479.33;236.93;;;;;;;;;;4946536;28;20724;-47
2023/01/31 04:31:33;;;;;;;419.37;199.63;;;;;;;;;;4965667;28;20222;-47
2023/01/31 04:33:59;;;;;;;459.27;227.13;;;;;;;;;;4953616;28;20396;-47
2023/01/31 04:36:25;;;;;;;445.87;220.13;;;;;;;;;;4946733;28;20242;-49
2023/01/31 04:38:52;;;;;;;479.17;239.73;;;;;;;;;;4950957;28;20596;-47
2023/01/31 04:41:18;;;;;;;446.53;209.27;;;;;;;;;;4934957;28;20182;-47
2023/01/31 04:43:45;;;;;;;439.80;212.43;;;;;;;;;;4956346;28;20294;-47
2023/01/31 04:46:11;;;;;;;448.33;215.13;;;;;;;;;;4938368;28;20306;-47
2023/01/31 04:48:39;;;;;;;475.57;229.00;;;;;;;;;;4947358;28;20707;-47
2023/01/31 04:51:05;;;;;;;461.33;218.73;;;;;;;;;;4954523;28;20380;-47
2023/01/31 04:53:31;;;;;;;425.03;203.37;;;;;;;;;;4956253;28;20190;-47
2023/01/31 04:55:57;;;;;;;398.40;204.37;;;;;;;;;;4946660;28;20202;-47
2023/01/31 04:58:23;;;;;;;404.27;200.97;;;;;;;;;;4926127;28;20252;-47
2023/01/31 05:00:51;;;;;;;460.50;225.03;;;;;;;;;;4946832;28;20689;-47
2023/01/31 05:03:17;;;;;;;433.37;211.33;;;;;;;;;;4931970;28;20689;-49
2023/01/31 05:05:44;;;;;;;417.43;213.13;;;;;;;;;;4937284;28;20858;-49
2023/01/31 05:08:11;;;;;;;345.43;183.03;;;;;;;;;;4942049;28;20710;-49
2023/01/31 05:10:37;;;;;;;386.43;189.37;;;;;;;;;;4943606;28;20231;-48
2023/01/31 05:13:03;;;;;;;418.97;207.60;;;;;;;;;;4945913;28;20283;-48
2023/01/31 05:15:31;;;;;;;398.80;200.27;;;;;;;;;;4944820;28;20286;-49
2023/01/31 05:18:03;;;;;;;365.83;177.90;;;;;;;;;;4951720;28;20320;-47
2023/01/31 05:20:35;;;;;;;381.80;190.90;;;;;;;;;;4939316;28;20467;-49
2023/01/31 05:23:02;;;;;;;397.97;195.03;;;;;;;;;;4920774;28;20464;-48
2023/01/31 05:25:29;;;;;;;352.00;172.93;;;;;;;;;;4951298;28;20206;-48
2023/01/31 05:27:55;;;;;;;420.67;208.90;;;;;;;;;;4933627;28;20230;-48
2023/01/31 05:30:25;;;;;;;373.77;187.60;;;;;;;;;;4923694;28;20223;-49
2023/01/31 05:32:52;;;;;;;369.63;185.10;;;;;;;;;;4950076;28;20230;-49
2023/01/31 05:35:18;;;;;;;367.03;182.70;;;;;;;;;;4955129;28;20206;-48
2023/01/31 05:37:45;;;;;;;381.73;191.70;;;;;;;;;;4985871;28;20406;-49
2023/01/31 05:40:13;;;;;;;387.77;195.73;;;;;;;;;;4940360;28;20490;-49
2023/01/31 05:42:39;;;;;;;383.93;190.33;;;;;;;;;;4914236;28;20278;-49
2023/01/31 05:45:07;;;;;;;369.37;185.67;;;;;;;;;;4950779;28;20225;-49
2023/01/31 05:47:33;;;;;;;370.43;186.10;;;;;;;;;;4944445;28;20608;-48
2023/01/31 05:50:00;;;;;;;413.00;207.33;;;;;;;;;;4943145;28;20249;-49
2023/01/31 05:52:27;;;;;;;378.70;190.07;;;;;;;;;;4940514;28;20994;-48
2023/01/31 05:54:53;;;;;;;378.70;188.50;;;;;;;;;;4916098;28;20230;-48
2023/01/31 05:57:19;;;;;;;407.77;210.90;;;;;;;;;;4945759;28;20367;-49
2023/01/31 05:59:46;;;;;;;383.73;193.47;;;;;;;;;;4983730;28;20263;-47
2023/01/31 06:02:13;;;;;;;372.17;195.50;;;;;;;;;;4951105;28;20191;-49
2023/01/31 06:04:40;;;;;;;405.17;204.87;;;;;;;;;;4933760;28;20297;-49
2023/01/31 06:07:06;;;;;;;388.53;194.50;;;;;;;;;;4954511;28;20234;-49
2023/01/31 06:09:33;;;;;;;400.97;207.13;;;;;;;;;;4945354;28;20230;-48
2023/01/31 06:11:59;;;;;;;390.37;206.40;;;;;;;;;;4937347;28;20249;-48
2023/01/31 06:14:26;;;;;;;382.57;188.77;;;;;;;;;;4943114;28;20233;-48
2023/01/31 06:16:53;;;;;;;425.20;214.50;;;;;;;;;;4941749;28;20724;-51
2023/01/31 06:19:24;;;;;;;384.47;199.40;;;;;;;;;;4958995;28;20680;-48
2023/01/31 06:21:51;;;;;;;397.73;203.07;;;;;;;;;;4947199;28;20846;-49
2023/01/31 06:24:17;;;;;;;406.70;200.83;;;;;;;;;;4961158;28;20235;-48
2023/01/31 06:26:43;;;;;;;400.83;203.77;;;;;;;;;;4937238;28;22220;-49
2023/01/31 06:29:10;;;;;;;379.07;191.83;;;;;;;;;;4930892;28;20283;-49
2023/01/31 06:31:37;;;;;;;366.13;196.23;;;;;;;;;;4942831;28;20215;-47
2023/01/31 06:34:03;;;;;;;412.17;213.73;;;;;;;;;;4943606;28;20316;-50
2023/01/31 06:36:33;;;;;;;401.50;206.17;;;;;;;;;;4923363;28;20741;-49
2023/01/31 06:38:59;;;;;;;408.97;215.67;;;;;;;;;;4939109;28;20346;-48
2023/01/31 06:41:26;;;;;;;400.50;211.77;;;;;;;;;;4927710;28;20191;-49
2023/01/31 06:43:52;;;;;;;422.43;222.80;;;;;;;;;;4939748;28;20227;-49
2023/01/31 06:46:19;;;;;;;426.93;221.57;;;;;;;;;;4922185;28;20277;-48
2023/01/31 06:51:22;;;;;;;464.20;242.40;;;;;;;;;;4976729;22;20947;-52
2023/01/31 06:53:50;;;;;;;443.73;218.77;;;;;;;;;;4965447;28;20207;-51
2023/01/31 06:56:17;;;;;;;486.63;241.97;;;;;;;;;;4955596;28;20189;-51
2023/01/31 06:58:43;;;;;;;441.93;218.87;;;;;;;;;;4954657;28;20224;-51
2023/01/31 07:01:11;;;;;;;533.00;264.10;;;;;;;;;;4971150;28;21010;-51
2023/01/31 07:03:38;;;;;;;422.97;198.53;;;;;;;;;;4972954;28;20209;-52
2023/01/31 07:06:04;;;;;;;489.03;261.93;;;;;;;;;;4941596;23;20250;-49
2023/01/31 07:08:31;;;;;;;446.13;226.10;;;;;;;;;;4901338;28;20263;-49
2023/01/31 07:10:58;;;;;;;471.13;256.03;;;;;;;;;;4912963;28;20194;-48
2023/01/31 07:13:24;;;;;;;525.83;291.73;;;;;;;;;;4915037;28;21584;-48
2023/01/31 07:15:50;;;;;;;483.93;248.83;;;;;;;;;;4875509;28;20242;-48
2023/01/31 07:18:16;;;;;;;534.87;269.90;;;;;;;;;;4916385;28;22669;-48
2023/01/31 07:20:42;;;;;;;450.67;225.23;;;;;;;;;;4911782;28;20184;-48
2023/01/31 07:23:08;;;;;;;501.70;253.67;;;;;;;;;;4886506;28;20211;-49
2023/01/31 07:25:35;;;;;;;496.57;247.17;;;;;;;;;;4896225;28;20238;-48
2023/01/31 07:28:02;;;;;;;537.87;273.80;;;;;;;;;;4899377;28;20270;-48
2023/01/31 07:30:28;;;;;;;443.47;220.27;;;;;;;;;;4887869;28;20223;-48
2023/01/31 07:32:54;;;;;;;549.97;288.63;;;;;;;;;;4895689;28;20298;-47
2023/01/31 07:35:21;;;;;;;549.53;278.40;;;;;;;;;;4871566;28;20221;-49
2023/01/31 07:37:47;;;;;;;529.63;271.27;;;;;;;;;;4894877;28;20294;-48
2023/01/31 07:40:14;;;;;;;525.03;268.60;;;;;;;;;;4869276;28;20473;-47
2023/01/31 07:42:41;;;;;;;514.27;262.37;;;;;;;;;;4888553;28;20603;-48
2023/01/31 07:45:08;;;;;;;469.67;242.20;;;;;;;;;;4892245;28;20331;-48
2023/01/31 07:47:34;;;;;;;441.67;221.40;;;;;;;;;;4917537;28;20250;-48
2023/01/31 07:50:00;;;;;;;458.43;234.97;;;;;;;;;;4905876;28;20952;-48
2023/01/31 07:52:26;;;;;;;510.03;252.10;;;;;;;;;;4896347;28;20336;-48
2023/01/31 07:54:52;;;;;;;448.93;224.30;;;;;;;;;;4907942;28;20338;-48
2023/01/31 07:57:19;;;;;;;455.70;229.57;;;;;;;;;;4901612;28;20221;-48
2023/01/31 07:59:45;;;;;;;489.67;245.67;;;;;;;;;;4914662;28;20206;-49
2023/01/31 08:05:00;;;;;;;414.57;213.90;;;;;;;;;;4930708;28;20347;-48
2023/01/31 08:07:27;;;;;;;413.67;216.93;;;;;;;;;;4928970;28;20318;-49
2023/01/31 08:09:54;;;;;;;447.97;225.40;;;;;;;;;;4908771;28;20215;-49
2023/01/31 08:12:20;;;;;;;480.20;250.93;;;;;;;;;;4931883;28;20412;-50
2023/01/31 08:14:46;;;;;;;450.73;231.47;;;;;;;;;;4930377;28;20685;-48
2023/01/31 08:17:12;;;;;;;559.70;277.17;;;;;;;;;;4911400;28;20280;-49
2023/01/31 08:19:39;;;;;;;583.03;299.63;;;;;;;;;;4900698;28;20275;-48
2023/01/31 08:22:05;;;;;;;528.67;264.73;;;;;;;;;;4904026;28;20215;-49
2023/01/31 08:24:32;;;;;;;523.40;272.70;;;;;;;;;;4891586;28;20222;-49
2023/01/31 08:26:58;;;;;;;510.63;262.20;;;;;;;;;;4897800;28;20219;-49
2023/01/31 08:29:25;;;;;;;497.57;254.53;;;;;;;;;;4898318;28;20290;-48
2023/01/31 08:31:51;;;;;;;517.97;257.90;;;;;;;;;;4905915;28;20223;-48
2023/01/31 08:34:17;;;;;;;571.47;295.43;;;;;;;;;;4878100;28;20295;-48
2023/01/31 08:36:44;;;;;;;540.33;274.27;;;;;;;;;;4888398;28;20218;-48
2023/01/31 08:39:10;;;;;;;440.97;217.20;;;;;;;;;;4894842;28;20263;-48
2023/01/31 08:41:37;;;;;;;436.70;220.93;;;;;;;;;;4925454;28;20186;-48
2023/01/31 08:44:04;;;;;;;489.40;248.97;;;;;;;;;;4909789;28;20234;-49
2023/01/31 08:46:32;;;;;;;431.47;218.67;;;;;;;;;;4912034;28;20285;-48
2023/01/31 08:48:58;;;;;;;426.93;220.00;;;;;;;;;;4918077;28;20226;-49
2023/01/31 08:51:24;;;;;;;513.57;261.00;;;;;;;;;;4884372;28;20427;-49
2023/01/31 08:53:52;;;;;;;525.63;265.40;;;;;;;;;;4898788;28;20245;-49
2023/01/31 08:56:20;;;;;;;533.00;280.97;;;;;;;;;;4895045;28;20310;-49
2023/01/31 08:58:46;;;;;;;484.00;246.03;;;;;;;;;;4908746;28;20247;-49
2023/01/31 09:01:16;;;;;;;465.43;237.50;;;;;;;;;;4905508;28;20708;-49
2023/01/31 09:03:43;;;;;;;546.13;282.87;;;;;;;;;;4897818;28;20218;-49
2023/01/31 09:06:18;;;;;;;582.43;294.27;;;;;;;;;;4911045;28;20292;-49
2023/01/31 09:08:45;;;;;;;528.07;269.10;;;;;;;;;;4889124;28;20194;-49
2023/01/31 09:11:15;;;;;;;487.83;251.53;;;;;;;;;;4914554;28;20234;-49
2023/01/31 09:13:42;;;;;;;491.60;255.83;;;;;;;;;;4903306;28;20260;-48
2023/01/31 09:16:10;;;;;;;495.83;259.90;;;;;;;;;;4905485;28;22371;-49
2023/01/31 09:18:37;;;;;;;483.10;245.57;;;;;;;;;;4914642;28;20486;-48
2023/01/31 09:21:07;;;;;;;433.73;229.03;;;;;;;;;;4916235;28;20264;-49
2023/01/31 09:23:33;;;;;;;545.83;283.53;;;;;;;;;;4893705;28;20274;-49
2023/01/31 09:25:59;;;;;;;531.80;269.87;;;;;;;;;;4896094;28;20273;-49
2023/01/31 09:28:25;;;;;;;511.33;265.90;;;;;;;;;;4897807;28;20218;-48
2023/01/31 09:30:52;;;;;;;434.77;224.73;;;;;;;;;;4904330;28;20286;-49
2023/01/31 09:33:19;;;;;;;496.50;258.03;;;;;;;;;;4891873;28;20702;-48
2023/01/31 09:36:08;;;;;;;473.93;247.43;;;;;;;;;;4899587;28;20561;-49
2023/01/31 09:38:34;;;;;;;463.47;248.17;;;;;;;;;;4898872;28;20344;-49
2023/01/31 09:41:03;;;;;;;456.23;231.27;;;;;;;;;;4901129;28;20191;-48
2023/01/31 09:43:37;;;;;;;571.57;298.23;;;;;;;;;;4899890;28;20267;-49
2023/01/31 09:46:05;;;;;;;510.27;268.57;;;;;;;;;;4892559;28;20292;-49
2023/01/31 09:48:34;;;;;;;501.57;256.10;;;;;;;;;;4896372;28;20222;-49
2023/01/31 09:51:00;;;;;;;483.60;249.60;;;;;;;;;;4896912;28;20912;-50
2023/01/31 09:53:31;;;;;;;590.53;304.97;;;;;;;;;;4901554;28;20276;-49
2023/01/31 09:56:04;;;;;;;533.17;268.70;;;;;;;;;;4877590;28;20257;-50
2023/01/31 09:58:36;;;;;;;482.27;250.50;;;;;;;;;;4886727;28;20304;-49
2023/01/31 10:01:02;;;;;;;449.73;232.97;;;;;;;;;;4900171;28;20279;-49
2023/01/31 10:03:37;;;;;;;510.53;264.40;;;;;;;;;;4907602;28;20222;-50
2023/01/31 10:06:12;;;;;;;495.27;254.73;;;;;;;;;;4900389;28;20444;-49
2023/01/31 10:08:39;;;;;;;564.77;322.37;;;;;;;;;;4896895;28;20198;-50
2023/01/31 10:11:07;;;;;;;493.20;266.70;;;;;;;;;;4898415;28;20251;-50
2023/01/31 10:13:35;;;;;;;569.40;314.77;;;;;;;;;;4893424;28;20236;-50
2023/01/31 10:16:05;;;;;;;506.50;273.03;;;;;;;;;;4904574;28;20231;-49
2023/01/31 10:18:33;;;;;;;481.80;258.90;;;;;;;;;;4893655;28;20538;-49
2023/01/31 10:20:59;;;;;;;547.83;295.50;;;;;;;;;;4915298;28;21006;-49
2023/01/31 10:23:51;;;;;;;482.43;262.63;;;;;;;;;;4922361;28;20246;-50
2023/01/31 10:26:29;;;;;;;478.20;256.17;;;;;;;;;;4908829;28;20769;-48
2023/01/31 10:29:00;;;;;;;506.80;273.63;;;;;;;;;;4917572;28;20226;-48
2023/01/31 10:31:32;;;;;;;520.40;279.67;;;;;;;;;;4897158;28;20667;-48
2023/01/31 10:34:09;;;;;;;493.10;266.50;;;;;;;;;;4901417;28;20233;-48
2023/01/31 10:36:42;;;;;;;490.70;255.13;;;;;;;;;;4894057;28;20210;-48
2023/01/31 10:39:23;;;;;;;461.87;247.37;;;;;;;;;;4897905;28;20710;-49
2023/01/31 10:41:50;;;;;;;537.07;296.13;;;;;;;;;;4907207;28;20357;-49
2023/01/31 10:44:30;;;;;;;473.60;253.43;;;;;;;;;;4904011;28;20554;-49
2023/01/31 10:46:57;;;;;;;485.27;257.20;;;;;;;;;;4913908;28;20379;-50
2023/01/31 10:49:24;;;;;;;492.37;264.80;;;;;;;;;;4911888;28;20317;-49
2023/01/31 10:52:03;;;;;;;516.20;280.10;;;;;;;;;;4906044;28;20563;-49
2023/01/31 10:54:42;;;;;;;521.77;275.33;;;;;;;;;;4882648;28;20269;-48
2023/01/31 10:57:08;;;;;;;551.57;303.17;;;;;;;;;;4886438;28;21192;-48
2023/01/31 10:59:36;;;;;;;526.27;293.50;;;;;;;;;;4877504;28;20349;-49
2023/01/31 11:02:03;;;;;;;529.13;290.63;;;;;;;;;;4870060;28;20195;-48
2023/01/31 11:04:40;;;;;;;507.67;277.20;;;;;;;;;;4898429;28;20223;-49
2023/01/31 11:07:07;;;;;;;521.70;292.07;;;;;;;;;;4902123;28;20387;-49
2023/01/31 11:09:37;;;;;;;554.20;308.40;;;;;;;;;;4891003;28;20309;-49
2023/01/31 11:12:05;;;;;;;511.57;269.77;;;;;;;;;;4888594;28;20582;-49
2023/01/31 11:14:31;;;;;;;540.47;292.03;;;;;;;;;;4895887;28;20388;-49
2023/01/31 11:17:09;;;;;;;576.77;324.73;;;;;;;;;;4875783;28;20183;-49
2023/01/31 11:19:40;;;;;;;604.43;346.50;;;;;;;;;;4891212;28;20226;-49
2023/01/31 11:22:07;;;;;;;517.63;281.20;;;;;;;;;;4899204;28;20243;-49
2023/01/31 11:24:34;;;;;;;461.77;247.07;;;;;;;;;;4908857;28;20302;-49
2023/01/31 11:27:06;;;;;;;521.67;278.57;;;;;;;;;;4887914;28;20325;-49
2023/01/31 11:29:35;;;;;;;521.60;277.93;;;;;;;;;;4873575;28;20770;-49
2023/01/31 11:32:04;;;;;;;527.30;285.43;;;;;;;;;;4893711;28;20275;-49
2023/01/31 11:34:32;;;;;;;521.67;283.33;;;;;;;;;;4904000;28;20306;-49
2023/01/31 11:37:24;;;;;;;519.57;276.07;;;;;;;;;;4905222;28;20317;-49
2023/01/31 11:39:55;;;;;;;490.70;266.10;;;;;;;;;;4869372;28;20705;-49
2023/01/31 11:42:21;;;;;;;464.30;242.83;;;;;;;;;;4906644;28;20218;-49
2023/01/31 11:44:54;;;;;;;528.83;283.90;;;;;;;;;;4890590;28;20223;-49
2023/01/31 11:47:22;;;;;;;534.33;285.73;;;;;;;;;;4917107;28;20557;-49
2023/01/31 11:49:49;;;;;;;489.97;257.73;;;;;;;;;;4898847;28;20226;-49
2023/01/31 11:52:18;;;;;;;482.77;246.53;;;;;;;;;;4918651;28;20312;-49
2023/01/31 11:54:46;;;;;;;479.63;248.63;;;;;;;;;;4918661;28;20732;-49
2023/01/31 11:57:16;;;;;;;466.33;243.70;;;;;;;;;;4914985;28;20246;-49
2023/01/31 11:59:43;;;;;;;564.60;315.63;;;;;;;;;;4900635;28;21331;-48
2023/01/31 12:02:27;;;;;;;494.40;254.27;;;;;;;;;;4897895;28;20203;-49
2023/01/31 12:04:54;;;;;;;562.17;284.37;;;;;;;;;;4904707;28;20670;-49
2023/01/31 12:07:25;;;;;;;520.10;264.53;;;;;;;;;;4907847;28;20558;-49
2023/01/31 12:09:51;;;;;;;575.13;287.97;;;;;;;;;;4886171;28;20611;-48
2023/01/31 12:12:28;;;;;;;502.43;258.57;;;;;;;;;;4897263;28;20239;-49
2023/01/31 12:14:59;;;;;;;459.37;235.53;;;;;;;;;;4881989;28;20297;-48
2023/01/31 12:17:28;;;;;;;530.47;289.37;;;;;;;;;;4899177;28;20206;-50
2023/01/31 12:19:57;;;;;;;543.23;280.60;;;;;;;;;;4902160;28;21685;-49
2023/01/31 12:22:46;;;;;;;527.37;283.07;;;;;;;;;;4897416;28;23103;-50
2023/01/31 12:25:31;;;;;;;516.13;265.50;;;;;;;;;;4915314;28;20690;-49
2023/01/31 12:28:16;;;;;;;496.97;257.13;;;;;;;;;;4917851;28;20218;-49
2023/01/31 12:31:06;;;;;;;528.63;285.03;;;;;;;;;;4908278;28;20258;-50
2023/01/31 12:33:38;;;;;;;548.83;304.77;;;;;;;;;;4903717;28;20234;-49
2023/01/31 12:36:20;;;;;;;469.63;240.30;;;;;;;;;;4903688;28;20733;-49
2023/01/31 12:39:01;;;;;;;559.63;303.30;;;;;;;;;;4883163;28;20245;-49
2023/01/31 12:41:40;;;;;;;516.67;279.70;;;;;;;;;;4895620;28;20203;-49
2023/01/31 12:44:18;;;;;;;507.90;277.60;;;;;;;;;;4914782;28;20420;-49
2023/01/31 12:47:12;;;;;;;432.70;220.60;;;;;;;;;;4941228;28;20234;-50
2023/01/31 12:49:44;;;;;;;558.53;303.00;;;;;;;;;;4895960;28;20239;-49
2023/01/31 12:52:10;;;;;;;522.27;274.40;;;;;;;;;;4918569;28;20707;-50
2023/01/31 12:54:48;;;;;;;494.73;267.03;;;;;;;;;;4906149;28;21127;-50
2023/01/31 12:57:24;;;;;;;545.00;296.43;;;;;;;;;;4912902;28;20669;-50
2023/01/31 12:59:56;;;;;;;515.97;287.13;;;;;;;;;;4914258;28;20343;-50
2023/01/31 13:02:41;;;;;;;515.50;271.97;;;;;;;;;;4910757;28;20754;-49
2023/01/31 13:05:22;;;;;;;453.60;229.37;;;;;;;;;;4916332;28;20238;-46
2023/01/31 13:07:51;;;;;;;485.23;252.10;;;;;;;;;;4932792;28;20304;-46
2023/01/31 13:10:26;;;;;;;455.63;240.23;;;;;;;;;;4939897;28;20227;-46
2023/01/31 13:12:52;;;;;;;444.27;233.40;;;;;;;;;;4938456;28;20295;-47
2023/01/31 13:15:26;;;;;;;466.57;243.70;;;;;;;;;;4950549;28;20295;-46
2023/01/31 13:17:54;;;;;;;220.63;116.37;;;;;;;;;;4940165;28;20581;-46
2023/01/31 13:20:20;;;;;;;216.93;112.30;;;;;;;;;;4947719;28;20186;-46
2023/01/31 13:22:49;;;;;;;222.43;116.37;;;;;;;;;;4987107;28;20259;-45
2023/01/31 13:25:38;;;;;;;287.93;147.47;;;;;;;;;;4994601;28;20219;-46
2023/01/31 13:28:17;;;;;;;473.27;229.07;;;;;;;;;;4927285;28;20218;-46
2023/01/31 13:30:56;;;;;;;440.50;220.13;;;;;;;;;;4938397;28;20218;-46
2023/01/31 13:33:40;;;;;;;482.20;238.53;;;;;;;;;;4938197;28;20276;-46
2023/01/31 13:36:15;;;;;;;458.87;233.47;;;;;;;;;;4941027;28;20285;-46
2023/01/31 13:38:42;;;;;;;488.07;253.63;;;;;;;;;;4930112;28;20202;-46
2023/01/31 13:41:13;;;;;;;446.87;221.97;;;;;;;;;;4929099;28;20224;-46
2023/01/31 13:43:39;;;;;;;498.00;262.37;;;;;;;;;;4938418;28;20607;-45
2023/01/31 13:46:08;;;;;;;457.43;240.20;;;;;;;;;;4933572;28;20729;-46
2023/01/31 13:48:37;;;;;;;463.97;231.20;;;;;;;;;;4943040;28;20230;-46
2023/01/31 13:51:08;;;;;;;486.87;255.87;;;;;;;;;;4931112;28;20246;-46
2023/01/31 13:53:43;;;;;;;485.57;247.60;;;;;;;;;;4932415;28;20215;-46
2023/01/31 13:56:12;;;;;;;490.83;249.37;;;;;;;;;;4940090;28;20198;-46
2023/01/31 13:58:39;;;;;;;508.60;257.30;;;;;;;;;;4938010;28;20233;-46
2023/01/31 14:01:07;;;;;;;475.37;237.87;;;;;;;;;;4934269;28;20231;-46
2023/01/31 14:03:54;;;;;;;484.93;260.17;;;;;;;;;;4931088;28;20231;-46
2023/01/31 14:06:20;;;;;;;478.00;242.47;;;;;;;;;;4931111;28;20321;-46
2023/01/31 14:08:49;;;;;;;486.33;252.90;;;;;;;;;;4938633;28;20266;-45
2023/01/31 14:11:15;;;;;;;456.93;240.97;;;;;;;;;;4927976;28;20245;-45
2023/01/31 14:13:43;;;;;;;495.47;251.00;;;;;;;;;;4930585;28;20245;-46
2023/01/31 14:16:27;;;;;;;483.93;254.50;;;;;;;;;;4942277;28;20342;-46